sensor_id;sensor_type;location;lat;lon;timestamp;P1;durP1;ratioP1;P2;durP2;ratioP2
52642;SDS011;38531;53.296;6.614;2022-10-23T00:00:04;1.73;;;0.90;;
52642;SDS011;38531;53.296;6.614;2022-10-23T00:02:30;2.95;;;1.00;;
52642;SDS011;38531;53.296;6.614;2022-10-23T00:04:56;3.40;;;1.20;;
52642;SDS011;38531;53.296;6.614;2022-10-23T00:07:21;2.03;;;1.00;;
52642;SDS011;38531;53.296;6.614;2022-10-23T00:09:47;3.08;;;1.20;;
52642;SDS011;38531;53.296;6.614;2022-10-23T00:12:13;1.45;;;0.90;;
52642;SDS011;38531;53.296;6.614;2022-10-23T00:14:38;2.63;;;0.98;;
52642;SDS011;38531;53.296;6.614;2022-10-23T00:17:04;2.15;;;1.20;;
52642;SDS011;38531;53.296;6.614;2022-10-23T00:19:30;3.30;;;1.10;;
52642;SDS011;38531;53.296;6.614;2022-10-23T00:21:56;2.22;;;0.90;;
52642;SDS011;38531;53.296;6.614;2022-10-23T00:24:21;1.80;;;0.82;;
52642;SDS011;38531;53.296;6.614;2022-10-23T00:26:50;2.35;;;0.85;;
52642;SDS011;38531;53.296;6.614;2022-10-23T00:29:16;2.67;;;1.10;;
52642;SDS011;38531;53.296;6.614;2022-10-23T00:31:41;1.77;;;0.90;;
52642;SDS011;38531;53.296;6.614;2022-10-23T00:34:07;2.45;;;0.88;;
52642;SDS011;38531;53.296;6.614;2022-10-23T00:36:33;1.67;;;0.98;;
52642;SDS011;38531;53.296;6.614;2022-10-23T00:38:59;2.08;;;0.95;;
52642;SDS011;38531;53.296;6.614;2022-10-23T00:41:25;2.25;;;0.90;;
52642;SDS011;38531;53.296;6.614;2022-10-23T00:50:22;1.60;;;0.75;;
52642;SDS011;38531;53.296;6.614;2022-10-23T00:52:52;1.75;;;1.00;;
52642;SDS011;38531;53.296;6.614;2022-10-23T00:55:19;1.20;;;0.80;;
52642;SDS011;38531;53.296;6.614;2022-10-23T00:57:47;2.10;;;1.05;;
52642;SDS011;38531;53.296;6.614;2022-10-23T01:03:17;1.30;;;0.80;;
52642;SDS011;38531;53.296;6.614;2022-10-23T01:05:48;1.33;;;0.80;;
52642;SDS011;38531;53.296;6.614;2022-10-23T01:08:22;2.03;;;1.10;;
52642;SDS011;38531;53.296;6.614;2022-10-23T01:11:07;1.55;;;0.90;;
52642;SDS011;38531;53.296;6.614;2022-10-23T01:13:42;1.40;;;0.75;;
52642;SDS011;38531;53.296;6.614;2022-10-23T01:16:17;1.52;;;0.88;;
52642;SDS011;38531;53.296;6.614;2022-10-23T01:22:20;2.58;;;0.90;;
52642;SDS011;38531;53.296;6.614;2022-10-23T01:25:18;2.45;;;0.80;;
52642;SDS011;38531;53.296;6.614;2022-10-23T01:28:15;1.45;;;0.80;;
52642;SDS011;38531;53.296;6.614;2022-10-23T01:30:58;1.95;;;0.80;;
52642;SDS011;38531;53.296;6.614;2022-10-23T01:33:32;2.25;;;1.00;;
52642;SDS011;38531;53.296;6.614;2022-10-23T01:36:13;2.20;;;1.02;;
52642;SDS011;38531;53.296;6.614;2022-10-23T01:41:18;3.92;;;1.15;;
52642;SDS011;38531;53.296;6.614;2022-10-23T01:43:53;3.13;;;1.10;;
52642;SDS011;38531;53.296;6.614;2022-10-23T01:46:25;1.85;;;1.00;;
52642;SDS011;38531;53.296;6.614;2022-10-23T01:48:52;1.33;;;0.90;;
52642;SDS011;38531;53.296;6.614;2022-10-23T01:51:21;4.53;;;1.13;;
52642;SDS011;38531;53.296;6.614;2022-10-23T01:53:51;1.80;;;0.98;;
52642;SDS011;38531;53.296;6.614;2022-10-23T01:56:22;3.85;;;1.10;;
52642;SDS011;38531;53.296;6.614;2022-10-23T01:58:56;3.38;;;1.00;;
52642;SDS011;38531;53.296;6.614;2022-10-23T02:01:26;1.88;;;1.15;;
52642;SDS011;38531;53.296;6.614;2022-10-23T02:03:54;1.30;;;0.90;;
52642;SDS011;38531;53.296;6.614;2022-10-23T02:06:21;3.72;;;1.02;;
52642;SDS011;38531;53.296;6.614;2022-10-23T02:08:46;1.92;;;1.10;;
52642;SDS011;38531;53.296;6.614;2022-10-23T02:11:13;2.33;;;1.20;;
52642;SDS011;38531;53.296;6.614;2022-10-23T02:16:22;1.50;;;0.90;;
52642;SDS011;38531;53.296;6.614;2022-10-23T02:21:52;3.75;;;1.10;;
52642;SDS011;38531;53.296;6.614;2022-10-23T02:24:22;5.85;;;1.20;;
52642;SDS011;38531;53.296;6.614;2022-10-23T02:27:01;1.38;;;1.05;;
52642;SDS011;38531;53.296;6.614;2022-10-23T02:29:33;2.42;;;1.23;;
52642;SDS011;38531;53.296;6.614;2022-10-23T02:32:05;3.00;;;1.17;;
52642;SDS011;38531;53.296;6.614;2022-10-23T02:34:32;2.80;;;1.38;;
52642;SDS011;38531;53.296;6.614;2022-10-23T02:36:58;2.47;;;1.20;;
52642;SDS011;38531;53.296;6.614;2022-10-23T02:39:25;2.10;;;1.20;;
52642;SDS011;38531;53.296;6.614;2022-10-23T02:44:31;2.13;;;1.00;;
52642;SDS011;38531;53.296;6.614;2022-10-23T02:49:55;1.65;;;1.00;;
52642;SDS011;38531;53.296;6.614;2022-10-23T02:52:43;1.48;;;1.00;;
52642;SDS011;38531;53.296;6.614;2022-10-23T02:55:16;2.40;;;1.38;;
52642;SDS011;38531;53.296;6.614;2022-10-23T02:57:54;3.05;;;1.33;;
52642;SDS011;38531;53.296;6.614;2022-10-23T03:00:28;1.33;;;1.05;;
52642;SDS011;38531;53.296;6.614;2022-10-23T03:03:00;1.48;;;0.90;;
52642;SDS011;38531;53.296;6.614;2022-10-23T03:05:30;1.55;;;0.88;;
52642;SDS011;38531;53.296;6.614;2022-10-23T03:08:03;1.33;;;0.93;;
52642;SDS011;38531;53.296;6.614;2022-10-23T03:10:32;1.77;;;0.93;;
52642;SDS011;38531;53.296;6.614;2022-10-23T03:12:58;1.80;;;1.10;;
52642;SDS011;38531;53.296;6.614;2022-10-23T03:15:23;1.25;;;0.80;;
52642;SDS011;38531;53.296;6.614;2022-10-23T03:17:49;1.30;;;0.80;;
52642;SDS011;38531;53.296;6.614;2022-10-23T03:20:15;1.10;;;0.90;;
52642;SDS011;38531;53.296;6.614;2022-10-23T03:22:41;1.25;;;0.93;;
52642;SDS011;38531;53.296;6.614;2022-10-23T03:25:07;1.20;;;0.90;;
52642;SDS011;38531;53.296;6.614;2022-10-23T03:27:33;1.75;;;1.10;;
52642;SDS011;38531;53.296;6.614;2022-10-23T03:29:59;1.70;;;1.13;;
52642;SDS011;38531;53.296;6.614;2022-10-23T03:32:25;2.20;;;1.15;;
52642;SDS011;38531;53.296;6.614;2022-10-23T03:34:50;1.80;;;1.20;;
52642;SDS011;38531;53.296;6.614;2022-10-23T03:37:16;2.45;;;1.20;;
52642;SDS011;38531;53.296;6.614;2022-10-23T03:39:42;2.08;;;1.05;;
52642;SDS011;38531;53.296;6.614;2022-10-23T03:42:07;2.22;;;1.20;;
52642;SDS011;38531;53.296;6.614;2022-10-23T03:44:33;2.35;;;1.40;;
52642;SDS011;38531;53.296;6.614;2022-10-23T03:46:59;1.52;;;1.30;;
52642;SDS011;38531;53.296;6.614;2022-10-23T03:49:25;1.58;;;1.00;;
52642;SDS011;38531;53.296;6.614;2022-10-23T03:51:53;2.08;;;1.15;;
52642;SDS011;38531;53.296;6.614;2022-10-23T03:54:23;1.88;;;1.10;;
52642;SDS011;38531;53.296;6.614;2022-10-23T03:56:50;2.35;;;1.13;;
52642;SDS011;38531;53.296;6.614;2022-10-23T03:59:17;2.38;;;1.20;;
52642;SDS011;38531;53.296;6.614;2022-10-23T04:01:43;1.27;;;0.88;;
52642;SDS011;38531;53.296;6.614;2022-10-23T04:04:10;1.33;;;0.90;;
52642;SDS011;38531;53.296;6.614;2022-10-23T04:06:36;2.00;;;1.17;;
52642;SDS011;38531;53.296;6.614;2022-10-23T04:09:03;1.88;;;1.25;;
52642;SDS011;38531;53.296;6.614;2022-10-23T04:11:29;2.13;;;1.50;;
52642;SDS011;38531;53.296;6.614;2022-10-23T04:13:55;2.40;;;1.50;;
52642;SDS011;38531;53.296;6.614;2022-10-23T04:16:21;2.85;;;1.35;;
52642;SDS011;38531;53.296;6.614;2022-10-23T04:18:48;1.85;;;1.30;;
52642;SDS011;38531;53.296;6.614;2022-10-23T04:21:14;2.75;;;1.60;;
52642;SDS011;38531;53.296;6.614;2022-10-23T04:23:40;3.40;;;1.27;;
52642;SDS011;38531;53.296;6.614;2022-10-23T04:26:06;3.40;;;1.30;;
52642;SDS011;38531;53.296;6.614;2022-10-23T04:28:31;4.07;;;2.05;;
52642;SDS011;38531;53.296;6.614;2022-10-23T04:30:57;3.10;;;1.65;;
52642;SDS011;38531;53.296;6.614;2022-10-23T04:33:23;2.65;;;1.50;;
52642;SDS011;38531;53.296;6.614;2022-10-23T04:35:49;3.75;;;1.60;;
52642;SDS011;38531;53.296;6.614;2022-10-23T04:38:14;3.42;;;1.90;;
52642;SDS011;38531;53.296;6.614;2022-10-23T04:40:40;2.80;;;1.40;;
52642;SDS011;38531;53.296;6.614;2022-10-23T04:43:06;2.83;;;1.73;;
52642;SDS011;38531;53.296;6.614;2022-10-23T04:45:32;3.13;;;1.77;;
52642;SDS011;38531;53.296;6.614;2022-10-23T04:47:58;3.67;;;2.03;;
52642;SDS011;38531;53.296;6.614;2022-10-23T04:50:23;1.88;;;1.40;;
52642;SDS011;38531;53.296;6.614;2022-10-23T04:52:54;4.68;;;1.98;;
52642;SDS011;38531;53.296;6.614;2022-10-23T04:55:20;4.25;;;2.00;;
52642;SDS011;38531;53.296;6.614;2022-10-23T04:57:46;3.67;;;1.83;;
52642;SDS011;38531;53.296;6.614;2022-10-23T05:00:12;4.70;;;1.65;;
52642;SDS011;38531;53.296;6.614;2022-10-23T05:02:40;3.58;;;1.90;;
52642;SDS011;38531;53.296;6.614;2022-10-23T05:05:06;4.55;;;1.60;;
52642;SDS011;38531;53.296;6.614;2022-10-23T05:07:33;4.63;;;1.55;;
52642;SDS011;38531;53.296;6.614;2022-10-23T05:09:59;2.28;;;1.42;;
52642;SDS011;38531;53.296;6.614;2022-10-23T05:12:25;5.10;;;1.90;;
52642;SDS011;38531;53.296;6.614;2022-10-23T05:14:51;3.90;;;1.58;;
52642;SDS011;38531;53.296;6.614;2022-10-23T05:17:19;3.53;;;1.55;;
52642;SDS011;38531;53.296;6.614;2022-10-23T05:19:52;2.70;;;1.35;;
52642;SDS011;38531;53.296;6.614;2022-10-23T05:22:21;4.20;;;2.00;;
52642;SDS011;38531;53.296;6.614;2022-10-23T05:24:51;2.95;;;1.58;;
52642;SDS011;38531;53.296;6.614;2022-10-23T05:27:17;4.90;;;1.98;;
52642;SDS011;38531;53.296;6.614;2022-10-23T05:29:43;2.35;;;1.40;;
52642;SDS011;38531;53.296;6.614;2022-10-23T05:32:09;2.78;;;1.55;;
52642;SDS011;38531;53.296;6.614;2022-10-23T05:34:37;5.30;;;1.80;;
52642;SDS011;38531;53.296;6.614;2022-10-23T05:37:05;4.13;;;1.88;;
52642;SDS011;38531;53.296;6.614;2022-10-23T05:39:33;4.03;;;2.47;;
52642;SDS011;38531;53.296;6.614;2022-10-23T05:41:59;3.20;;;1.85;;
52642;SDS011;38531;53.296;6.614;2022-10-23T05:44:25;2.97;;;1.80;;
52642;SDS011;38531;53.296;6.614;2022-10-23T05:46:50;3.72;;;1.80;;
52642;SDS011;38531;53.296;6.614;2022-10-23T05:49:16;4.78;;;2.10;;
52642;SDS011;38531;53.296;6.614;2022-10-23T05:51:42;2.92;;;1.52;;
52642;SDS011;38531;53.296;6.614;2022-10-23T05:54:08;3.90;;;1.88;;
52642;SDS011;38531;53.296;6.614;2022-10-23T05:56:37;3.50;;;1.88;;
52642;SDS011;38531;53.296;6.614;2022-10-23T05:59:05;3.20;;;1.83;;
52642;SDS011;38531;53.296;6.614;2022-10-23T06:01:32;2.90;;;1.48;;
52642;SDS011;38531;53.296;6.614;2022-10-23T06:03:58;3.72;;;1.83;;
52642;SDS011;38531;53.296;6.614;2022-10-23T06:06:25;4.57;;;2.00;;
52642;SDS011;38531;53.296;6.614;2022-10-23T06:08:53;3.05;;;1.65;;
52642;SDS011;38531;53.296;6.614;2022-10-23T06:11:19;3.53;;;1.75;;
52642;SDS011;38531;53.296;6.614;2022-10-23T06:13:44;2.97;;;1.50;;
52642;SDS011;38531;53.296;6.614;2022-10-23T06:16:16;3.88;;;2.20;;
52642;SDS011;38531;53.296;6.614;2022-10-23T06:18:43;5.03;;;2.35;;
52642;SDS011;38531;53.296;6.614;2022-10-23T06:21:13;2.97;;;1.63;;
52642;SDS011;38531;53.296;6.614;2022-10-23T06:23:39;3.65;;;1.70;;
52642;SDS011;38531;53.296;6.614;2022-10-23T06:26:07;3.78;;;1.77;;
52642;SDS011;38531;53.296;6.614;2022-10-23T06:28:35;3.40;;;1.75;;
52642;SDS011;38531;53.296;6.614;2022-10-23T06:31:07;2.80;;;1.40;;
52642;SDS011;38531;53.296;6.614;2022-10-23T06:33:35;3.80;;;2.17;;
52642;SDS011;38531;53.296;6.614;2022-10-23T06:36:01;3.40;;;1.88;;
52642;SDS011;38531;53.296;6.614;2022-10-23T06:38:31;4.20;;;2.22;;
52642;SDS011;38531;53.296;6.614;2022-10-23T06:41:16;4.18;;;1.90;;
52642;SDS011;38531;53.296;6.614;2022-10-23T06:43:46;3.88;;;2.10;;
52642;SDS011;38531;53.296;6.614;2022-10-23T06:46:12;3.40;;;1.58;;
52642;SDS011;38531;53.296;6.614;2022-10-23T06:48:40;3.97;;;1.90;;
52642;SDS011;38531;53.296;6.614;2022-10-23T06:51:07;2.65;;;1.33;;
52642;SDS011;38531;53.296;6.614;2022-10-23T06:53:35;3.05;;;1.70;;
52642;SDS011;38531;53.296;6.614;2022-10-23T06:56:02;3.47;;;1.83;;
52642;SDS011;38531;53.296;6.614;2022-10-23T06:58:33;3.80;;;1.70;;
52642;SDS011;38531;53.296;6.614;2022-10-23T07:01:01;3.00;;;1.42;;
52642;SDS011;38531;53.296;6.614;2022-10-23T07:03:28;3.88;;;1.90;;
52642;SDS011;38531;53.296;6.614;2022-10-23T07:05:54;4.15;;;1.52;;
52642;SDS011;38531;53.296;6.614;2022-10-23T07:08:20;6.20;;;2.33;;
52642;SDS011;38531;53.296;6.614;2022-10-23T07:10:48;2.47;;;1.48;;
52642;SDS011;38531;53.296;6.614;2022-10-23T07:15:44;2.95;;;1.52;;
52642;SDS011;38531;53.296;6.614;2022-10-23T07:18:18;3.47;;;1.58;;
52642;SDS011;38531;53.296;6.614;2022-10-23T07:24:13;3.08;;;1.50;;
52642;SDS011;38531;53.296;6.614;2022-10-23T07:27:04;3.55;;;1.40;;
52642;SDS011;38531;53.296;6.614;2022-10-23T07:29:43;3.42;;;1.58;;
52642;SDS011;38531;53.296;6.614;2022-10-23T07:32:31;2.42;;;1.27;;
52642;SDS011;38531;53.296;6.614;2022-10-23T07:35:00;2.92;;;1.63;;
52642;SDS011;38531;53.296;6.614;2022-10-23T07:37:28;3.10;;;1.70;;
52642;SDS011;38531;53.296;6.614;2022-10-23T07:40:07;2.75;;;1.52;;
52642;SDS011;38531;53.296;6.614;2022-10-23T07:42:46;2.80;;;1.73;;
52642;SDS011;38531;53.296;6.614;2022-10-23T07:45:36;3.78;;;2.05;;
52642;SDS011;38531;53.296;6.614;2022-10-23T07:51:44;3.75;;;1.60;;
52642;SDS011;38531;53.296;6.614;2022-10-23T07:54:15;5.88;;;1.83;;
52642;SDS011;38531;53.296;6.614;2022-10-23T07:56:48;3.42;;;1.67;;
52642;SDS011;38531;53.296;6.614;2022-10-23T07:59:20;2.47;;;1.17;;
52642;SDS011;38531;53.296;6.614;2022-10-23T08:01:54;2.17;;;1.27;;
52642;SDS011;38531;53.296;6.614;2022-10-23T08:04:21;3.13;;;1.20;;
52642;SDS011;38531;53.296;6.614;2022-10-23T08:06:47;2.53;;;1.52;;
52642;SDS011;38531;53.296;6.614;2022-10-23T08:09:24;3.78;;;1.60;;
52642;SDS011;38531;53.296;6.614;2022-10-23T08:12:21;3.65;;;1.50;;
52642;SDS011;38531;53.296;6.614;2022-10-23T08:14:52;4.65;;;1.95;;
52642;SDS011;38531;53.296;6.614;2022-10-23T08:17:21;4.05;;;1.77;;
52642;SDS011;38531;53.296;6.614;2022-10-23T08:19:51;3.92;;;1.52;;
52642;SDS011;38531;53.296;6.614;2022-10-23T08:22:27;2.92;;;1.30;;
52642;SDS011;38531;53.296;6.614;2022-10-23T08:24:53;2.95;;;1.92;;
52642;SDS011;38531;53.296;6.614;2022-10-23T08:27:32;2.50;;;1.38;;
52642;SDS011;38531;53.296;6.614;2022-10-23T08:30:18;3.65;;;2.25;;
52642;SDS011;38531;53.296;6.614;2022-10-23T08:33:02;4.85;;;2.47;;
52642;SDS011;38531;53.296;6.614;2022-10-23T08:35:28;4.80;;;1.98;;
52642;SDS011;38531;53.296;6.614;2022-10-23T08:38:06;6.35;;;1.98;;
52642;SDS011;38531;53.296;6.614;2022-10-23T08:40:37;5.15;;;2.20;;
52642;SDS011;38531;53.296;6.614;2022-10-23T08:43:30;7.47;;;2.78;;
52642;SDS011;38531;53.296;6.614;2022-10-23T08:49:14;2.38;;;1.50;;
52642;SDS011;38531;53.296;6.614;2022-10-23T08:51:54;5.50;;;2.40;;
52642;SDS011;38531;53.296;6.614;2022-10-23T08:57:12;4.82;;;1.90;;
52642;SDS011;38531;53.296;6.614;2022-10-23T08:59:45;3.60;;;1.85;;
52642;SDS011;38531;53.296;6.614;2022-10-23T09:02:36;2.70;;;1.40;;
52642;SDS011;38531;53.296;6.614;2022-10-23T09:11:24;3.20;;;1.70;;
52642;SDS011;38531;53.296;6.614;2022-10-23T09:19:42;2.25;;;1.48;;
52642;SDS011;38531;53.296;6.614;2022-10-23T09:22:09;2.92;;;1.85;;
52642;SDS011;38531;53.296;6.614;2022-10-23T09:24:36;4.57;;;1.95;;
52642;SDS011;38531;53.296;6.614;2022-10-23T09:29:48;6.10;;;1.90;;
52642;SDS011;38531;53.296;6.614;2022-10-23T09:35:29;3.63;;;1.98;;
52642;SDS011;38531;53.296;6.614;2022-10-23T09:37:58;8.57;;;1.95;;
52642;SDS011;38531;53.296;6.614;2022-10-23T09:40:46;5.60;;;2.10;;
52642;SDS011;38531;53.296;6.614;2022-10-23T09:43:18;3.65;;;2.00;;
52642;SDS011;38531;53.296;6.614;2022-10-23T09:46:00;4.38;;;1.90;;
52642;SDS011;38531;53.296;6.614;2022-10-23T09:54:36;5.82;;;1.73;;
52642;SDS011;38531;53.296;6.614;2022-10-23T09:57:42;3.35;;;1.42;;
52642;SDS011;38531;53.296;6.614;2022-10-23T10:02:40;3.28;;;1.42;;
52642;SDS011;38531;53.296;6.614;2022-10-23T10:05:41;2.50;;;1.25;;
52642;SDS011;38531;53.296;6.614;2022-10-23T10:08:05;6.25;;;1.98;;
52642;SDS011;38531;53.296;6.614;2022-10-23T10:10:51;3.67;;;1.70;;
52642;SDS011;38531;53.296;6.614;2022-10-23T10:16:06;3.25;;;1.40;;
52642;SDS011;38531;53.296;6.614;2022-10-23T10:19:02;2.20;;;0.98;;
52642;SDS011;38531;53.296;6.614;2022-10-23T10:27:36;3.40;;;1.48;;
52642;SDS011;38531;53.296;6.614;2022-10-23T10:38:52;3.33;;;1.00;;
52642;SDS011;38531;53.296;6.614;2022-10-23T10:46:58;3.05;;;1.30;;
52642;SDS011;38531;53.296;6.614;2022-10-23T11:06:38;2.90;;;1.40;;
52642;SDS011;38531;53.296;6.614;2022-10-23T11:09:16;1.35;;;0.90;;
52642;SDS011;38531;53.296;6.614;2022-10-23T11:11:52;1.92;;;1.17;;
52642;SDS011;38531;53.296;6.614;2022-10-23T11:14:20;3.22;;;0.80;;
52642;SDS011;38531;53.296;6.614;2022-10-23T11:16:52;1.95;;;0.70;;
52642;SDS011;38531;53.296;6.614;2022-10-23T11:19:29;3.42;;;1.08;;
52642;SDS011;38531;53.296;6.614;2022-10-23T11:30:16;3.55;;;1.20;;
52642;SDS011;38531;53.296;6.614;2022-10-23T11:32:58;3.08;;;0.90;;
52642;SDS011;38531;53.296;6.614;2022-10-23T11:41:03;2.92;;;1.15;;
52642;SDS011;38531;53.296;6.614;2022-10-23T11:43:57;3.38;;;1.08;;
52642;SDS011;38531;53.296;6.614;2022-10-23T11:46:36;2.90;;;1.30;;
52642;SDS011;38531;53.296;6.614;2022-10-23T11:49:03;2.67;;;0.98;;
52642;SDS011;38531;53.296;6.614;2022-10-23T11:51:44;2.78;;;1.23;;
52642;SDS011;38531;53.296;6.614;2022-10-23T11:56:38;0.88;;;0.60;;
52642;SDS011;38531;53.296;6.614;2022-10-23T11:59:23;2.17;;;0.90;;
52642;SDS011;38531;53.296;6.614;2022-10-23T12:01:56;2.45;;;1.33;;
52642;SDS011;38531;53.296;6.614;2022-10-23T12:04:25;4.80;;;1.35;;
52642;SDS011;38531;53.296;6.614;2022-10-23T12:07:01;4.57;;;1.50;;
52642;SDS011;38531;53.296;6.614;2022-10-23T12:09:39;3.40;;;1.25;;
52642;SDS011;38531;53.296;6.614;2022-10-23T12:14:39;3.17;;;0.93;;
52642;SDS011;38531;53.296;6.614;2022-10-23T12:26:55;3.05;;;0.98;;
52642;SDS011;38531;53.296;6.614;2022-10-23T12:32:16;1.63;;;1.10;;
52642;SDS011;38531;53.296;6.614;2022-10-23T12:35:08;1.40;;;0.88;;
52642;SDS011;38531;53.296;6.614;2022-10-23T12:41:01;5.60;;;1.77;;
52642;SDS011;38531;53.296;6.614;2022-10-23T12:43:37;2.38;;;0.98;;
52642;SDS011;38531;53.296;6.614;2022-10-23T12:48:33;1.85;;;1.13;;
52642;SDS011;38531;53.296;6.614;2022-10-23T12:50:59;1.83;;;1.10;;
52642;SDS011;38531;53.296;6.614;2022-10-23T12:53:25;5.18;;;1.38;;
52642;SDS011;38531;53.296;6.614;2022-10-23T12:56:00;4.35;;;1.50;;
52642;SDS011;38531;53.296;6.614;2022-10-23T12:58:29;1.70;;;0.93;;
52642;SDS011;38531;53.296;6.614;2022-10-23T13:00:57;7.47;;;1.10;;
52642;SDS011;38531;53.296;6.614;2022-10-23T13:03:25;3.05;;;0.82;;
52642;SDS011;38531;53.296;6.614;2022-10-23T13:05:54;4.03;;;1.33;;
52642;SDS011;38531;53.296;6.614;2022-10-23T13:08:38;2.08;;;1.10;;
52642;SDS011;38531;53.296;6.614;2022-10-23T13:11:07;1.85;;;0.65;;
52642;SDS011;38531;53.296;6.614;2022-10-23T13:13:38;1.10;;;0.80;;
52642;SDS011;38531;53.296;6.614;2022-10-23T13:16:21;1.23;;;0.80;;
52642;SDS011;38531;53.296;6.614;2022-10-23T13:18:49;1.35;;;0.70;;
52642;SDS011;38531;53.296;6.614;2022-10-23T13:21:22;0.93;;;0.65;;
52642;SDS011;38531;53.296;6.614;2022-10-23T13:23:50;1.33;;;0.60;;
52642;SDS011;38531;53.296;6.614;2022-10-23T13:28:58;1.73;;;0.75;;
52642;SDS011;38531;53.296;6.614;2022-10-23T13:31:34;3.00;;;0.70;;
52642;SDS011;38531;53.296;6.614;2022-10-23T13:36:27;3.65;;;0.57;;
52642;SDS011;38531;53.296;6.614;2022-10-23T13:39:01;1.05;;;0.50;;
52642;SDS011;38531;53.296;6.614;2022-10-23T13:41:38;1.92;;;0.70;;
52642;SDS011;38531;53.296;6.614;2022-10-23T13:44:10;8.70;;;0.80;;
52642;SDS011;38531;53.296;6.614;2022-10-23T13:46:37;0.82;;;0.50;;
52642;SDS011;38531;53.296;6.614;2022-10-23T13:49:03;1.20;;;0.57;;
52642;SDS011;38531;53.296;6.614;2022-10-23T13:51:30;0.70;;;0.50;;
52642;SDS011;38531;53.296;6.614;2022-10-23T13:54:05;2.75;;;0.88;;
52642;SDS011;38531;53.296;6.614;2022-10-23T13:56:38;1.95;;;0.63;;
52642;SDS011;38531;53.296;6.614;2022-10-23T13:59:03;2.72;;;0.85;;
52642;SDS011;38531;53.296;6.614;2022-10-23T14:01:31;1.20;;;0.60;;
52642;SDS011;38531;53.296;6.614;2022-10-23T14:07:40;3.33;;;0.77;;
52642;SDS011;38531;53.296;6.614;2022-10-23T14:10:06;3.75;;;1.10;;
52642;SDS011;38531;53.296;6.614;2022-10-23T14:12:41;1.00;;;0.60;;
52642;SDS011;38531;53.296;6.614;2022-10-23T14:15:08;2.15;;;0.90;;
52642;SDS011;38531;53.296;6.614;2022-10-23T14:17:35;1.13;;;0.50;;
52642;SDS011;38531;53.296;6.614;2022-10-23T14:20:01;2.05;;;0.90;;
52642;SDS011;38531;53.296;6.614;2022-10-23T14:22:27;1.40;;;0.80;;
52642;SDS011;38531;53.296;6.614;2022-10-23T14:24:53;1.95;;;0.60;;
52642;SDS011;38531;53.296;6.614;2022-10-23T14:27:18;3.33;;;0.80;;
52642;SDS011;38531;53.296;6.614;2022-10-23T14:29:44;2.47;;;0.65;;
52642;SDS011;38531;53.296;6.614;2022-10-23T14:32:10;1.40;;;0.60;;
52642;SDS011;38531;53.296;6.614;2022-10-23T14:34:37;3.13;;;1.00;;
52642;SDS011;38531;53.296;6.614;2022-10-23T14:37:05;3.45;;;1.15;;
52642;SDS011;38531;53.296;6.614;2022-10-23T14:39:31;2.45;;;0.80;;
52642;SDS011;38531;53.296;6.614;2022-10-23T14:41:57;1.02;;;0.52;;
52642;SDS011;38531;53.296;6.614;2022-10-23T14:44:22;1.77;;;0.70;;
52642;SDS011;38531;53.296;6.614;2022-10-23T14:46:48;1.88;;;0.68;;
52642;SDS011;38531;53.296;6.614;2022-10-23T14:49:14;0.80;;;0.60;;
52642;SDS011;38531;53.296;6.614;2022-10-23T14:51:40;2.28;;;0.50;;
52642;SDS011;38531;53.296;6.614;2022-10-23T14:54:06;0.70;;;0.50;;
52642;SDS011;38531;53.296;6.614;2022-10-23T14:56:33;3.47;;;0.65;;
52642;SDS011;38531;53.296;6.614;2022-10-23T14:59:01;2.38;;;0.90;;
52642;SDS011;38531;53.296;6.614;2022-10-23T15:01:28;1.55;;;0.50;;
52642;SDS011;38531;53.296;6.614;2022-10-23T15:03:55;2.03;;;1.80;;
52642;SDS011;38531;53.296;6.614;2022-10-23T15:06:21;4.72;;;4.53;;
52642;SDS011;38531;53.296;6.614;2022-10-23T15:08:51;1.10;;;0.60;;
52642;SDS011;38531;53.296;6.614;2022-10-23T15:11:21;2.00;;;0.50;;
52642;SDS011;38531;53.296;6.614;2022-10-23T15:13:48;2.55;;;1.48;;
52642;SDS011;38531;53.296;6.614;2022-10-23T15:16:14;1.15;;;0.80;;
52642;SDS011;38531;53.296;6.614;2022-10-23T15:26:03;5.15;;;4.63;;
52642;SDS011;38531;53.296;6.614;2022-10-23T15:28:31;40.47;;;37.45;;
52642;SDS011;38531;53.296;6.614;2022-10-23T15:30:57;30.13;;;28.27;;
52642;SDS011;38531;53.296;6.614;2022-10-23T15:33:23;16.88;;;15.80;;
52642;SDS011;38531;53.296;6.614;2022-10-23T15:35:53;17.35;;;16.17;;
52642;SDS011;38531;53.296;6.614;2022-10-23T15:38:22;2.05;;;0.70;;
52642;SDS011;38531;53.296;6.614;2022-10-23T15:40:48;4.18;;;2.72;;
52642;SDS011;38531;53.296;6.614;2022-10-23T15:43:14;2.53;;;0.90;;
52642;SDS011;38531;53.296;6.614;2022-10-23T15:45:41;4.57;;;0.85;;
52642;SDS011;38531;53.296;6.614;2022-10-23T15:48:07;9.23;;;8.68;;
52642;SDS011;38531;53.296;6.614;2022-10-23T15:50:34;15.77;;;14.85;;
52642;SDS011;38531;53.296;6.614;2022-10-23T15:53:03;1.55;;;0.73;;
52642;SDS011;38531;53.296;6.614;2022-10-23T15:55:28;2.17;;;0.85;;
52642;SDS011;38531;53.296;6.614;2022-10-23T15:57:54;1.67;;;0.63;;
52642;SDS011;38531;53.296;6.614;2022-10-23T16:00:23;1.25;;;0.60;;
52642;SDS011;38531;53.296;6.614;2022-10-23T16:02:49;0.73;;;0.50;;
52642;SDS011;38531;53.296;6.614;2022-10-23T16:05:22;1.80;;;0.60;;
52642;SDS011;38531;53.296;6.614;2022-10-23T16:07:50;1.65;;;0.50;;
52642;SDS011;38531;53.296;6.614;2022-10-23T16:10:16;2.00;;;0.40;;
52642;SDS011;38531;53.296;6.614;2022-10-23T16:12:48;0.63;;;0.50;;
52642;SDS011;38531;53.296;6.614;2022-10-23T16:15:14;1.88;;;0.60;;
52642;SDS011;38531;53.296;6.614;2022-10-23T16:17:42;0.70;;;0.55;;
52642;SDS011;38531;53.296;6.614;2022-10-23T16:20:08;1.63;;;0.73;;
52642;SDS011;38531;53.296;6.614;2022-10-23T16:22:34;0.75;;;0.50;;
52642;SDS011;38531;53.296;6.614;2022-10-23T16:25:01;1.63;;;0.57;;
52642;SDS011;38531;53.296;6.614;2022-10-23T16:27:27;1.75;;;0.50;;
52642;SDS011;38531;53.296;6.614;2022-10-23T16:29:53;0.70;;;0.40;;
52642;SDS011;38531;53.296;6.614;2022-10-23T16:32:18;1.95;;;0.50;;
52642;SDS011;38531;53.296;6.614;2022-10-23T16:34:44;1.02;;;0.50;;
52642;SDS011;38531;53.296;6.614;2022-10-23T16:37:10;1.55;;;0.60;;
52642;SDS011;38531;53.296;6.614;2022-10-23T16:39:35;2.55;;;0.50;;
52642;SDS011;38531;53.296;6.614;2022-10-23T16:42:02;0.60;;;0.40;;
52642;SDS011;38531;53.296;6.614;2022-10-23T16:44:28;0.82;;;0.40;;
52642;SDS011;38531;53.296;6.614;2022-10-23T16:46:54;3.22;;;0.60;;
52642;SDS011;38531;53.296;6.614;2022-10-23T16:49:20;1.13;;;0.50;;
52642;SDS011;38531;53.296;6.614;2022-10-23T16:51:45;1.10;;;0.52;;
52642;SDS011;38531;53.296;6.614;2022-10-23T16:54:11;2.80;;;0.80;;
52642;SDS011;38531;53.296;6.614;2022-10-23T16:56:38;1.63;;;0.50;;
52642;SDS011;38531;53.296;6.614;2022-10-23T16:59:20;1.50;;;0.63;;
52642;SDS011;38531;53.296;6.614;2022-10-23T17:01:45;0.85;;;0.47;;
52642;SDS011;38531;53.296;6.614;2022-10-23T17:04:11;2.38;;;0.60;;
52642;SDS011;38531;53.296;6.614;2022-10-23T17:06:37;2.47;;;0.73;;
52642;SDS011;38531;53.296;6.614;2022-10-23T17:09:02;2.00;;;0.40;;
52642;SDS011;38531;53.296;6.614;2022-10-23T17:11:30;1.38;;;0.50;;
52642;SDS011;38531;53.296;6.614;2022-10-23T17:13:58;0.68;;;0.50;;
52642;SDS011;38531;53.296;6.614;2022-10-23T17:19:17;1.60;;;0.50;;
52642;SDS011;38531;53.296;6.614;2022-10-23T17:21:45;1.20;;;0.50;;
52642;SDS011;38531;53.296;6.614;2022-10-23T17:24:10;2.33;;;0.60;;
52642;SDS011;38531;53.296;6.614;2022-10-23T17:26:37;2.25;;;0.60;;
52642;SDS011;38531;53.296;6.614;2022-10-23T17:29:04;2.80;;;0.60;;
52642;SDS011;38531;53.296;6.614;2022-10-23T17:31:32;1.60;;;0.52;;
52642;SDS011;38531;53.296;6.614;2022-10-23T17:34:01;1.75;;;0.50;;
52642;SDS011;38531;53.296;6.614;2022-10-23T17:36:31;1.38;;;0.70;;
52642;SDS011;38531;53.296;6.614;2022-10-23T17:38:59;1.58;;;0.45;;
52642;SDS011;38531;53.296;6.614;2022-10-23T17:41:25;1.67;;;0.55;;
52642;SDS011;38531;53.296;6.614;2022-10-23T17:43:54;1.25;;;0.60;;
52642;SDS011;38531;53.296;6.614;2022-10-23T17:46:21;0.70;;;0.52;;
52642;SDS011;38531;53.296;6.614;2022-10-23T17:48:47;0.98;;;0.50;;